Time;durP1;ratioP1;P1;durP2;ratioP2;P2;SDS_P1;SDS_P2;PMS_P1;PMS_P2;Temp;Humidity;BMP_temperature;BMP_pressure;BME280_temperature;BME280_humidity;BME280_pressure;Samples;Min_cycle;Max_cycle;Signal;HPM_P1;HPM_P2
2022/05/12 00:00:30;;;;;;;2.97;1.57;;;23.20;44.20;;;;;;5059742;28;22306;-78
2022/05/12 00:02:58;;;;;;;1.60;1.50;;;23.20;44.00;;;;;;5063722;28;20560;-78
2022/05/12 00:05:27;;;;;;;1.23;1.13;;;23.20;43.40;;;;;;5060522;28;20481;-78
2022/05/12 00:07:55;;;;;;;1.83;1.47;;;23.20;45.20;;;;;;5055002;28;20517;-77
2022/05/12 00:10:25;;;;;;;2.00;1.80;;;23.20;45.60;;;;;;5066962;28;20537;-77
2022/05/12 00:12:54;;;;;;;1.50;1.40;;;23.20;45.50;;;;;;5062619;28;20448;-77
2022/05/12 00:15:24;;;;;;;1.60;1.33;;;23.20;44.90;;;;;;5065510;28;20470;-77
2022/05/12 00:17:54;;;;;;;3.47;1.50;;;23.10;44.90;;;;;;5060753;28;20462;-77
2022/05/12 00:20:24;;;;;;;3.90;1.90;;;23.00;43.60;;;;;;5062941;28;20947;-77
2022/05/12 00:22:53;;;;;;;1.50;1.40;;;23.00;44.50;;;;;;5059744;28;22680;-79
2022/05/12 00:25:24;;;;;;;1.40;1.30;;;23.10;46.30;;;;;;5060814;28;20485;-78
2022/05/12 00:27:52;;;;;;;2.57;1.63;;;23.20;46.70;;;;;;5062551;28;20463;-77
2022/05/12 00:30:20;;;;;;;1.43;1.33;;;23.10;47.30;;;;;;5065367;28;20458;-77
2022/05/12 00:32:48;;;;;;;1.80;1.70;;;23.00;46.90;;;;;;5063303;28;20454;-76
2022/05/12 00:35:18;;;;;;;2.00;1.90;;;23.10;47.00;;;;;;5058451;28;20829;-77
2022/05/12 00:37:47;;;;;;;1.60;1.50;;;23.10;48.10;;;;;;5064456;28;20466;-77
2022/05/12 00:40:16;;;;;;;1.70;1.50;;;23.00;46.90;;;;;;5056911;28;20443;-77
2022/05/12 00:42:59;;;;;;;1.30;1.20;;;23.00;46.70;;;;;;5064053;28;20454;-78
2022/05/12 00:45:29;;;;;;;1.50;1.40;;;23.10;48.60;;;;;;5062177;28;20473;-76
2022/05/12 00:47:57;;;;;;;1.50;1.40;;;23.20;49.80;;;;;;5062081;28;20455;-77
2022/05/12 00:50:30;;;;;;;1.67;1.57;;;23.20;49.80;;;;;;5059035;28;20482;-77
2022/05/12 00:53:01;;;;;;;2.27;2.07;;;23.30;50.20;;;;;;5062173;28;20466;-77
2022/05/12 00:55:33;;;;;;;1.60;1.50;;;23.20;49.70;;;;;;5064659;28;20846;-77
2022/05/12 00:58:06;;;;;;;1.40;1.30;;;23.30;50.30;;;;;;5063920;28;20889;-77
2022/05/12 01:00:34;;;;;;;2.00;1.90;;;23.30;51.20;;;;;;5061048;28;20478;-78
2022/05/12 01:03:08;;;;;;;1.57;1.47;;;23.30;51.40;;;;;;5063587;28;20449;-77
2022/05/12 01:05:38;;;;;;;1.97;1.50;;;23.30;51.80;;;;;;5065104;28;20457;-78
2022/05/12 01:08:09;;;;;;;1.70;1.60;;;23.30;52.50;;;;;;5062436;28;20986;-80
2022/05/12 01:10:39;;;;;;;3.90;1.80;;;23.30;66.50;;;;;;5065095;28;20825;-78
2022/05/12 01:13:08;;;;;;;2.43;2.23;;;23.30;52.30;;;;;;5063760;28;20463;-77
2022/05/12 01:15:36;;;;;;;1.43;1.27;;;23.30;52.10;;;;;;5064124;28;20496;-78
2022/05/12 01:18:09;;;;;;;1.47;1.37;;;23.30;52.70;;;;;;5062869;28;20450;-78
2022/05/12 01:20:39;;;;;;;1.50;1.40;;;23.30;51.50;;;;;;5061689;28;20476;-79
2022/05/12 01:23:26;;;;;;;1.63;1.40;;;23.20;51.70;;;;;;5064883;28;20442;-76
2022/05/12 01:25:59;;;;;;;2.23;1.67;;;23.20;51.70;;;;;;5056910;28;20455;-77
2022/05/12 01:28:28;;;;;;;2.07;1.63;;;23.10;51.20;;;;;;5060983;28;20469;-80
2022/05/12 01:30:57;;;;;;;1.43;1.33;;;23.10;49.70;;;;;;5062195;28;20474;-77
2022/05/12 01:33:26;;;;;;;2.07;1.97;;;23.10;50.80;;;;;;5064502;28;20450;-79
2022/05/12 01:35:54;;;;;;;1.60;1.50;;;23.10;50.80;;;;;;5061238;28;20533;-78
2022/05/12 01:38:23;;;;;;;1.90;1.80;;;23.00;50.80;;;;;;5066049;28;21325;-77
2022/05/12 01:40:52;;;;;;;1.53;1.43;;;23.10;52.40;;;;;;5063961;28;20446;-77
2022/05/12 01:43:21;;;;;;;2.80;1.40;;;23.10;53.00;;;;;;5061866;28;20534;-78
2022/05/12 01:45:49;;;;;;;1.50;1.40;;;23.20;53.90;;;;;;5061701;28;20454;-78
2022/05/12 01:48:18;;;;;;;1.87;1.77;;;23.20;54.90;;;;;;5063970;28;20458;-76
2022/05/12 01:50:48;;;;;;;2.07;1.83;;;23.30;53.20;;;;;;5062133;28;20561;-78
2022/05/12 01:53:17;;;;;;;2.47;1.50;;;23.30;54.10;;;;;;5065431;28;21104;-77
2022/05/12 01:55:48;;;;;;;1.60;1.50;;;23.30;53.70;;;;;;5063679;28;20559;-77
2022/05/12 01:58:18;;;;;;;1.50;1.40;;;23.20;54.60;;;;;;5061581;28;20450;-79
2022/05/12 02:00:47;;;;;;;4.63;1.90;;;23.30;54.30;;;;;;5061269;28;20455;-78
2022/05/12 02:03:15;;;;;;;3.23;1.67;;;23.20;54.30;;;;;;5062485;28;20463;-79
2022/05/12 02:05:44;;;;;;;1.90;1.80;;;23.20;54.60;;;;;;5060289;28;20450;-78
2022/05/12 02:08:13;;;;;;;1.50;1.40;;;23.10;54.30;;;;;;5058269;28;21319;-78
2022/05/12 02:10:45;;;;;;;1.63;1.40;;;23.10;54.10;;;;;;5059867;28;20502;-78
2022/05/12 02:13:17;;;;;;;1.60;1.50;;;23.00;53.90;;;;;;5063443;28;20451;-79
2022/05/12 02:15:46;;;;;;;4.50;1.97;;;22.90;53.50;;;;;;5062894;28;20458;-77
2022/05/12 02:18:17;;;;;;;1.43;1.33;;;22.90;52.50;;;;;;5063137;28;20474;-78
2022/05/12 02:20:46;;;;;;;2.10;1.70;;;22.90;52.80;;;;;;5064487;28;20964;-77
2022/05/12 02:23:14;;;;;;;1.70;1.60;;;22.90;53.10;;;;;;5061633;28;20458;-78
2022/05/12 02:25:42;;;;;;;2.53;1.80;;;22.90;53.80;;;;;;5063891;28;20462;-77
2022/05/12 02:28:12;;;;;;;1.50;1.40;;;22.90;54.60;;;;;;5057411;28;21006;-79
2022/05/12 02:30:41;;;;;;;3.90;2.30;;;22.80;52.90;;;;;;5061252;28;20567;-78
2022/05/12 02:33:10;;;;;;;1.87;1.77;;;22.80;54.40;;;;;;5061520;28;20453;-78
2022/05/12 02:35:39;;;;;;;1.77;1.67;;;22.70;53.90;;;;;;5062470;28;20988;-81
2022/05/12 02:38:09;;;;;;;2.00;1.90;;;22.70;52.30;;;;;;5059483;28;20443;-78
2022/05/12 02:40:37;;;;;;;2.93;2.00;;;22.70;53.10;;;;;;5064360;28;20454;-78
2022/05/12 02:43:23;;;;;;;2.33;2.20;;;22.70;55.50;;;;;;5062308;28;20454;-79
2022/05/12 02:45:54;;;;;;;1.87;1.43;;;22.60;54.90;;;;;;5058523;28;20469;-79
2022/05/12 02:48:27;;;;;;;1.60;1.50;;;22.50;55.40;;;;;;5063259;28;20507;-77
2022/05/12 02:50:55;;;;;;;1.80;1.70;;;22.50;52.90;;;;;;5060943;28;20989;-77
2022/05/12 02:53:24;;;;;;;2.57;2.23;;;22.40;53.40;;;;;;5062729;28;20526;-79
2022/05/12 02:55:58;;;;;;;1.90;1.80;;;22.40;54.20;;;;;;5059880;28;20950;-78
2022/05/12 02:58:27;;;;;;;3.10;2.80;;;22.40;54.20;;;;;;5061994;28;20527;-77
2022/05/12 03:00:57;;;;;;;1.67;1.57;;;22.40;54.50;;;;;;5060249;28;20442;-78
2022/05/12 03:03:25;;;;;;;2.33;2.13;;;22.30;55.00;;;;;;5055876;28;20564;-79
2022/05/12 03:05:54;;;;;;;2.40;2.20;;;22.30;55.10;;;;;;5059865;28;20523;-77
2022/05/12 03:08:23;;;;;;;2.60;2.40;;;22.30;54.50;;;;;;5060991;28;20532;-77
2022/05/12 03:10:52;;;;;;;3.97;3.70;;;22.30;55.10;;;;;;5060859;28;20553;-78
2022/05/12 03:13:21;;;;;;;2.90;2.70;;;22.20;54.60;;;;;;5062273;28;20449;-78
2022/05/12 03:15:49;;;;;;;2.60;2.40;;;22.20;54.10;;;;;;5058869;28;20458;-77
2022/05/12 03:18:19;;;;;;;3.07;2.30;;;22.20;54.80;;;;;;5057070;28;20465;-77
2022/05/12 03:20:47;;;;;;;2.30;2.10;;;22.10;54.30;;;;;;5061733;28;20520;-77
2022/05/12 03:23:23;;;;;;;2.60;2.17;;;22.10;55.70;;;;;;5053958;28;20495;-79
2022/05/12 03:25:52;;;;;;;2.50;1.70;;;22.10;55.80;;;;;;5062045;28;20480;-79
2022/05/12 03:28:20;;;;;;;1.93;1.83;;;22.20;57.80;;;;;;5065614;28;20468;-80
2022/05/12 03:30:49;;;;;;;2.23;2.03;;;22.00;57.40;;;;;;5063378;28;20839;-79
2022/05/12 03:33:19;;;;;;;2.53;2.30;;;22.10;56.50;;;;;;5064029;28;21317;-79
2022/05/12 03:35:49;;;;;;;2.60;2.40;;;21.90;57.40;;;;;;5061360;28;20461;-79
2022/05/12 03:38:17;;;;;;;2.27;2.00;;;21.90;55.70;;;;;;5063920;28;20462;-79
2022/05/12 03:40:45;;;;;;;3.33;2.50;;;21.90;55.80;;;;;;5062876;28;20451;-80
2022/05/12 03:44:46;;;;;;;1.97;1.87;;;21.80;55.30;;;;;;5061514;28;20443;-78
2022/05/12 03:46:02;;;;;;;5.60;1.97;;;21.80;55.10;;;;;;5072837;28;20464;-79
2022/05/12 03:48:32;;;;;;;2.50;2.13;;;21.90;56.50;;;;;;5069085;28;20472;-79
2022/05/12 03:51:01;;;;;;;3.63;1.97;;;21.80;57.00;;;;;;5063353;28;20490;-79
2022/05/12 03:53:30;;;;;;;2.20;2.00;;;21.90;59.60;;;;;;5065786;28;20884;-79
2022/05/12 03:55:59;;;;;;;1.70;1.60;;;21.90;60.30;;;;;;5067400;28;20975;-81
2022/05/12 03:58:27;;;;;;;1.90;1.80;;;21.90;59.60;;;;;;5072003;28;20544;-80
2022/05/12 04:00:56;;;;;;;1.60;1.37;;;21.90;62.10;;;;;;5065343;28;20945;-78
2022/05/12 04:03:24;;;;;;;1.77;1.63;;;21.90;61.70;;;;;;5067413;28;20484;-82
2022/05/12 04:05:55;;;;;;;2.20;1.97;;;22.00;60.50;;;;;;5059324;28;20512;-79
2022/05/12 04:08:23;;;;;;;1.77;1.57;;;22.00;61.20;;;;;;5062627;28;20544;-79
2022/05/12 04:10:52;;;;;;;5.40;1.97;;;22.00;64.70;;;;;;5068252;28;20475;-78
2022/05/12 04:13:20;;;;;;;2.67;1.53;;;22.00;64.90;;;;;;5066119;28;20554;-79
2022/05/12 04:15:48;;;;;;;2.43;1.70;;;22.00;64.30;;;;;;5059965;28;20500;-78
2022/05/12 04:18:16;;;;;;;2.10;1.90;;;21.90;67.20;;;;;;5064449;28;20458;-79
2022/05/12 04:20:45;;;;;;;1.70;1.60;;;21.90;65.80;;;;;;5063703;28;20478;-79
2022/05/12 04:23:14;;;;;;;1.93;1.70;;;22.00;68.90;;;;;;5063236;28;20481;-78
2022/05/12 04:25:42;;;;;;;2.17;1.40;;;21.90;68.80;;;;;;5064427;28;21026;-79
2022/05/12 04:28:11;;;;;;;3.10;1.60;;;21.90;69.80;;;;;;5063465;28;20555;-78
2022/05/12 04:30:40;;;;;;;2.13;1.67;;;21.90;70.10;;;;;;5062127;28;22886;-81
2022/05/12 04:35:54;;;;;;;2.50;2.23;;;21.90;70.40;;;;;;5070575;28;20524;-81
2022/05/12 04:38:26;;;;;;;2.20;1.83;;;21.90;71.70;;;;;;5065411;28;20979;-81
2022/05/12 04:40:54;;;;;;;2.73;2.00;;;22.00;73.20;;;;;;5057294;28;21040;-79
2022/05/12 04:43:22;;;;;;;1.63;1.40;;;22.00;74.30;;;;;;5064945;28;20460;-80
2022/05/12 04:45:50;;;;;;;1.43;1.33;;;21.90;73.50;;;;;;5062760;28;20454;-80
2022/05/12 04:48:24;;;;;;;2.17;1.63;;;21.90;76.50;;;;;;5060822;28;20458;-77
2022/05/12 04:50:52;;;;;;;1.80;1.40;;;21.90;75.80;;;;;;5058858;28;20482;-81
2022/05/12 04:53:20;;;;;;;1.50;1.40;;;22.00;78.20;;;;;;5059854;28;20450;-81
2022/05/12 04:55:50;;;;;;;1.80;1.30;;;22.00;79.00;;;;;;5059329;28;20990;-81
2022/05/12 04:58:18;;;;;;;2.50;1.23;;;22.00;80.40;;;;;;5065025;28;20468;-81
2022/05/12 05:00:47;;;;;;;3.23;1.27;;;22.00;80.20;;;;;;5057879;28;20781;-81
2022/05/12 05:03:15;;;;;;;1.37;1.13;;;22.00;82.40;;;;;;5062920;28;20463;-80
2022/05/12 05:05:48;;;;;;;1.60;1.10;;;22.00;82.30;;;;;;5066339;28;20462;-80
2022/05/12 05:08:19;;;;;;;1.30;0.93;;;22.00;81.70;;;;;;5059360;28;20478;-80
2022/05/12 05:10:48;;;;;;;1.63;1.33;;;22.00;83.00;;;;;;5063364;28;20566;-80
2022/05/12 05:13:18;;;;;;;1.63;1.40;;;22.10;85.20;;;;;;5065385;28;20459;-80
2022/05/12 05:15:47;;;;;;;2.10;1.90;;;22.00;86.30;;;;;;5064907;28;20981;-80
2022/05/12 05:18:18;;;;;;;1.47;1.30;;;22.00;85.00;;;;;;5058119;28;20505;-80
2022/05/12 05:20:46;;;;;;;1.87;1.77;;;22.10;86.00;;;;;;5065409;28;20451;-79
2022/05/12 05:23:16;;;;;;;1.30;1.30;;;22.10;87.30;;;;;;5068075;28;20454;-81
2022/05/12 05:25:44;;;;;;;1.50;1.40;;;22.10;88.80;;;;;;5064467;28;20449;-81
2022/05/12 05:28:13;;;;;;;1.57;1.47;;;22.10;90.80;;;;;;5064126;28;20471;-80
2022/05/12 05:30:43;;;;;;;1.60;1.50;;;22.20;90.80;;;;;;5063685;28;20455;-79
2022/05/12 05:33:11;;;;;;;1.70;1.37;;;22.20;91.70;;;;;;5065435;28;20457;-79
2022/05/12 05:35:39;;;;;;;1.50;1.40;;;22.20;91.60;;;;;;5067415;28;20457;-81
2022/05/12 05:38:08;;;;;;;1.97;1.43;;;22.20;92.80;;;;;;5069798;28;20451;-80
2022/05/12 05:40:36;;;;;;;1.40;1.30;;;22.20;93.20;;;;;;5066035;28;20470;-79
2022/05/12 05:43:04;;;;;;;1.60;1.50;;;22.30;93.80;;;;;;5070135;28;20545;-80
2022/05/12 05:45:33;;;;;;;4.00;1.23;;;22.30;93.60;;;;;;5060905;28;20484;-79
2022/05/12 05:48:06;;;;;;;2.40;1.50;;;22.30;94.60;;;;;;5061387;28;20443;-81
2022/05/12 05:53:23;;;;;;;3.20;1.23;;;22.30;93.90;;;;;;5062553;28;20453;-80
2022/05/12 05:53:23;;;;;;;1.33;1.23;;;22.30;93.80;;;;;;5063451;28;20528;-81
2022/05/12 05:55:52;;;;;;;1.57;1.40;;;22.30;94.10;;;;;;5065108;28;20492;-81
2022/05/12 05:58:21;;;;;;;1.03;0.97;;;22.30;94.10;;;;;;5060893;28;20504;-80
2022/05/12 06:00:50;;;;;;;1.83;1.50;;;22.30;94.70;;;;;;5063323;28;20557;-82
2022/05/12 06:03:19;;;;;;;1.30;1.20;;;22.30;95.10;;;;;;5063192;28;20455;-79
2022/05/12 06:05:48;;;;;;;2.37;1.17;;;22.30;96.40;;;;;;5061491;28;20487;-80
2022/05/12 06:08:18;;;;;;;2.10;1.67;;;22.40;95.90;;;;;;5062984;28;20450;-80
2022/05/12 06:10:46;;;;;;;1.50;1.40;;;22.40;95.90;;;;;;5065195;28;20450;-77
2022/05/12 06:13:15;;;;;;;1.53;1.10;;;22.50;96.60;;;;;;5059886;28;20514;-80
2022/05/12 06:15:44;;;;;;;1.73;1.20;;;22.50;97.50;;;;;;5056270;28;20482;-80
2022/05/12 06:18:15;;;;;;;1.30;1.20;;;22.50;97.70;;;;;;5063539;28;20468;-79
2022/05/12 06:20:46;;;;;;;1.33;1.23;;;22.50;97.30;;;;;;5063174;28;20986;-79
2022/05/12 06:23:15;;;;;;;1.13;1.03;;;22.60;97.90;;;;;;5061134;28;20541;-79
2022/05/12 06:25:44;;;;;;;1.30;1.20;;;22.60;99.10;;;;;;5062725;28;20696;-79
2022/05/12 06:28:12;;;;;;;1.37;1.27;;;22.70;98.80;;;;;;5061721;28;21053;-79
2022/05/12 06:30:41;;;;;;;1.67;1.10;;;22.60;99.10;;;;;;5063299;28;20452;-79
2022/05/12 06:33:17;;;;;;;1.30;1.20;;;22.60;99.20;;;;;;5058561;28;20483;-79
2022/05/12 06:35:47;;;;;;;1.10;1.00;;;22.70;99.70;;;;;;5057607;28;20500;-78
2022/05/12 06:38:15;;;;;;;2.23;1.17;;;22.80;99.90;;;;;;5059765;28;20455;-79
2022/05/12 06:40:44;;;;;;;1.23;1.00;;;22.90;99.90;;;;;;5064435;28;20456;-80
2022/05/12 06:43:13;;;;;;;1.23;1.13;;;23.00;99.90;;;;;;5061824;28;20565;-79
2022/05/12 06:45:42;;;;;;;1.27;1.17;;;23.00;99.90;;;;;;5062625;28;20453;-79
2022/05/12 06:48:10;;;;;;;1.87;1.37;;;23.10;99.90;;;;;;5059888;28;20455;-80
2022/05/12 06:50:38;;;;;;;1.30;1.10;;;23.10;99.90;;;;;;5062766;28;20454;-80
2022/05/12 06:53:09;;;;;;;1.80;1.47;;;23.10;99.90;;;;;;5057290;28;21192;-78
2022/05/12 06:55:37;;;;;;;1.33;1.13;;;23.20;99.90;;;;;;5058432;28;20538;-80
2022/05/12 06:58:06;;;;;;;1.50;1.40;;;23.20;99.90;;;;;;5060776;28;20450;-78
2022/05/12 07:00:34;;;;;;;1.50;1.20;;;23.10;99.90;;;;;;5060919;28;20442;-79
2022/05/12 07:03:04;;;;;;;1.30;1.20;;;23.20;99.90;;;;;;5057738;28;20470;-78
2022/05/12 07:05:38;;;;;;;1.40;1.23;;;23.20;99.90;;;;;;5056675;28;21036;-79
2022/05/12 07:08:09;;;;;;;1.63;1.30;;;23.20;99.90;;;;;;5058639;28;20658;-80
2022/05/12 07:10:37;;;;;;;2.90;1.20;;;23.20;99.90;;;;;;5057594;28;20935;-80
2022/05/12 07:13:06;;;;;;;1.50;1.40;;;23.30;99.90;;;;;;5061134;28;20470;-79
2022/05/12 07:15:34;;;;;;;1.40;1.30;;;23.30;99.90;;;;;;5061556;28;20481;-79
2022/05/12 07:18:03;;;;;;;1.33;1.10;;;23.30;99.90;;;;;;5065369;28;20453;-79
2022/05/12 07:28:49;;;;;;;3.47;1.00;;;23.30;99.90;;;;;;5064670;28;20442;-80
2022/05/12 07:31:17;;;;;;;1.10;1.00;;;23.30;99.90;;;;;;5063302;28;20455;-79
2022/05/12 07:33:47;;;;;;;1.20;1.10;;;23.30;99.90;;;;;;5059111;28;20516;-79
2022/05/12 07:36:17;;;;;;;1.37;1.20;;;23.30;99.90;;;;;;5065962;28;20463;-79
2022/05/12 07:38:48;;;;;;;1.20;1.10;;;23.30;99.90;;;;;;5062455;28;21038;-79
2022/05/12 07:41:17;;;;;;;3.37;1.20;;;23.40;99.90;;;;;;5064586;28;20448;-79
2022/05/12 07:43:46;;;;;;;1.67;1.13;;;23.40;99.90;;;;;;5067498;28;20471;-81
2022/05/12 07:46:17;;;;;;;1.37;1.10;;;23.30;99.90;;;;;;5063464;28;20462;-80
2022/05/12 07:48:46;;;;;;;1.20;1.10;;;23.30;99.90;;;;;;5065420;28;20454;-78
2022/05/12 07:51:15;;;;;;;1.20;1.10;;;23.30;99.90;;;;;;5062310;28;20450;-78
2022/05/12 07:53:43;;;;;;;1.30;1.20;;;23.40;99.90;;;;;;5066800;28;20601;-81
2022/05/12 07:56:13;;;;;;;1.13;1.00;;;23.40;99.90;;;;;;5059525;28;20490;-80
2022/05/12 07:58:41;;;;;;;1.00;1.00;;;23.50;99.90;;;;;;5062122;28;20450;-79
2022/05/12 08:01:10;;;;;;;1.40;1.30;;;23.50;99.90;;;;;;5063283;28;20515;-79
2022/05/12 08:03:39;;;;;;;1.67;1.07;;;23.60;99.90;;;;;;5062145;28;20471;-80
2022/05/12 08:06:08;;;;;;;1.40;1.30;;;23.50;99.90;;;;;;5060798;28;20473;-79
2022/05/12 08:08:36;;;;;;;1.10;1.10;;;23.60;99.90;;;;;;5064215;28;20534;-79
2022/05/12 08:11:06;;;;;;;1.50;1.30;;;23.60;99.90;;;;;;5062312;28;20785;-80
2022/05/12 08:13:42;;;;;;;2.00;1.10;;;23.70;99.90;;;;;;5076626;28;20493;-79
2022/05/12 08:16:11;;;;;;;1.47;1.37;;;23.80;99.90;;;;;;5062597;28;20469;-80
2022/05/12 08:18:39;;;;;;;1.50;1.10;;;23.80;99.90;;;;;;5066002;28;20439;-79
2022/05/12 08:21:07;;;;;;;1.13;1.03;;;23.80;99.90;;;;;;5062608;28;20450;-79
2022/05/12 08:23:36;;;;;;;1.50;1.30;;;24.00;99.90;;;;;;5063269;28;20993;-80
2022/05/12 08:26:04;;;;;;;1.00;1.00;;;23.90;99.90;;;;;;5058640;28;20904;-79
2022/05/12 08:28:32;;;;;;;1.53;1.30;;;24.00;99.90;;;;;;5068380;28;20525;-79
2022/05/12 08:31:02;;;;;;;1.37;1.27;;;24.00;99.90;;;;;;5065088;28;20450;-80
2022/05/12 08:33:37;;;;;;;1.10;1.00;;;24.00;99.90;;;;;;5063130;28;20494;-79
2022/05/12 08:36:05;;;;;;;1.00;1.00;;;24.00;99.90;;;;;;5069096;28;20859;-81
2022/05/12 08:38:38;;;;;;;1.57;1.47;;;24.10;99.90;;;;;;5069632;28;20507;-80
2022/05/12 08:41:16;;;;;;;1.53;1.20;;;24.00;99.90;;;;;;5069410;28;20450;-79
2022/05/12 08:43:54;;;;;;;1.70;1.10;;;24.10;99.90;;;;;;5065141;28;20498;-79
2022/05/12 08:46:26;;;;;;;1.30;1.20;;;24.00;99.90;;;;;;5067500;28;20524;-79
2022/05/12 08:49:05;;;;;;;0.90;0.90;;;24.00;99.90;;;;;;5068634;28;21376;-79
2022/05/12 08:51:37;;;;;;;1.20;1.10;;;24.10;99.90;;;;;;5069360;28;20458;-80
2022/05/12 08:54:14;;;;;;;2.50;1.00;;;24.10;99.90;;;;;;5068451;28;20491;-79
2022/05/12 08:56:44;;;;;;;3.20;1.40;;;24.10;99.90;;;;;;5070411;28;20447;-80
2022/05/12 08:59:13;;;;;;;1.17;1.07;;;24.20;99.90;;;;;;5068064;28;20466;-80
2022/05/12 09:01:56;;;;;;;1.77;1.10;;;24.30;99.90;;;;;;5060050;28;20451;-80
2022/05/12 09:04:36;;;;;;;1.27;1.07;;;24.30;99.90;;;;;;5060440;28;20474;-80
2022/05/12 09:07:12;;;;;;;2.40;1.40;;;24.50;99.90;;;;;;5058049;28;20604;-81
2022/05/12 09:09:48;;;;;;;2.87;1.50;;;24.50;99.90;;;;;;5058287;28;20454;-80
2022/05/12 09:12:27;;;;;;;1.40;1.30;;;24.50;99.90;;;;;;5064651;28;20466;-79
2022/05/12 09:14:59;;;;;;;2.20;1.30;;;24.50;99.90;;;;;;5061546;28;20998;-79
2022/05/12 09:17:37;;;;;;;4.87;2.13;;;24.40;99.90;;;;;;5063505;28;20459;-79
2022/05/12 09:20:09;;;;;;;1.67;1.37;;;24.40;99.90;;;;;;5058905;28;20484;-81
2022/05/12 09:22:39;;;;;;;1.70;1.30;;;24.40;99.90;;;;;;5058155;28;21031;-79
2022/05/12 09:25:08;;;;;;;1.53;1.43;;;24.40;99.90;;;;;;5062980;28;20529;-81
2022/05/12 09:27:40;;;;;;;2.40;1.47;;;24.50;99.90;;;;;;5065691;28;20462;-79
2022/05/12 09:30:12;;;;;;;1.67;1.57;;;24.40;99.90;;;;;;5069456;28;20459;-80
2022/05/12 09:32:41;;;;;;;1.50;1.40;;;24.50;99.90;;;;;;5065542;28;20475;-78
2022/05/12 09:35:20;;;;;;;1.53;1.43;;;24.50;99.90;;;;;;5068547;28;20505;-80
2022/05/12 09:37:48;;;;;;;1.70;1.60;;;24.70;99.90;;;;;;5066084;28;20447;-80
2022/05/12 09:40:34;;;;;;;2.53;1.30;;;24.70;99.90;;;;;;5065765;28;20525;-79
2022/05/12 09:43:18;;;;;;;1.70;1.40;;;24.60;99.90;;;;;;5068886;28;20443;-79
2022/05/12 09:46:02;;;;;;;1.80;1.70;;;24.60;99.90;;;;;;5058735;28;20475;-77
2022/05/12 09:48:32;;;;;;;1.50;1.40;;;24.50;99.90;;;;;;5060225;28;20450;-81
2022/05/12 09:51:24;;;;;;;1.87;1.67;;;24.50;99.90;;;;;;5061574;28;20883;-80
2022/05/12 09:53:54;;;;;;;3.50;2.20;;;24.50;99.90;;;;;;5061561;28;20890;-79
2022/05/12 09:56:30;;;;;;;1.80;1.70;;;24.50;99.90;;;;;;5064489;28;20486;-80
2022/05/12 09:59:07;;;;;;;1.70;1.60;;;24.50;99.90;;;;;;5063264;28;20525;-79
2022/05/12 10:01:49;;;;;;;2.17;2.03;;;24.60;99.90;;;;;;5058930;28;20469;-81
2022/05/12 10:10:11;;;;;;;2.80;2.60;;;24.50;99.90;;;;;;5060458;28;20478;-79
2022/05/12 10:12:52;;;;;;;2.20;2.00;;;24.40;99.90;;;;;;5061691;28;21053;-78
2022/05/12 10:15:26;;;;;;;3.07;2.40;;;24.40;99.90;;;;;;5060104;28;20501;-79
2022/05/12 10:17:58;;;;;;;2.10;2.00;;;24.40;99.90;;;;;;5061591;28;20454;-78
2022/05/12 10:20:29;;;;;;;2.10;1.90;;;24.30;99.90;;;;;;5060504;28;20517;-79
2022/05/12 10:23:03;;;;;;;3.80;2.47;;;24.40;99.90;;;;;;5062613;28;20536;-80
2022/05/12 10:25:56;;;;;;;3.07;2.20;;;24.40;99.90;;;;;;5062142;28;20466;-80
2022/05/12 10:28:37;;;;;;;3.77;2.30;;;24.50;99.90;;;;;;5060872;28;20467;-79
2022/05/12 10:31:19;;;;;;;2.90;2.60;;;24.50;99.90;;;;;;5060817;28;20447;-79
2022/05/12 10:33:55;;;;;;;2.30;2.03;;;24.60;99.90;;;;;;5062311;28;20885;-78
2022/05/12 10:36:45;;;;;;;2.37;2.00;;;24.80;99.90;;;;;;5058005;28;20451;-78
2022/05/12 10:39:21;;;;;;;2.53;1.80;;;25.00;99.90;;;;;;5060171;28;20503;-79
2022/05/12 10:42:03;;;;;;;3.20;2.07;;;25.10;99.90;;;;;;5061913;28;20442;-79
2022/05/12 10:44:42;;;;;;;2.90;2.70;;;25.10;99.90;;;;;;5062318;28;20477;-78
2022/05/12 10:47:19;;;;;;;2.80;2.37;;;25.00;99.90;;;;;;5060477;28;20466;-80
2022/05/12 10:49:56;;;;;;;4.20;2.30;;;25.20;99.90;;;;;;5059550;28;21145;-77
2022/05/12 10:52:32;;;;;;;3.17;2.00;;;25.20;99.90;;;;;;5059133;28;20470;-79
2022/05/12 10:55:14;;;;;;;3.40;2.47;;;25.10;99.90;;;;;;5061447;28;20558;-78
2022/05/12 10:57:57;;;;;;;2.00;1.60;;;24.80;99.90;;;;;;5064711;28;20450;-81
2022/05/12 11:00:42;;;;;;;2.90;2.07;;;25.00;99.90;;;;;;5062713;28;21016;-80
2022/05/12 11:03:17;;;;;;;2.70;2.50;;;25.20;99.90;;;;;;5061189;28;20525;-81
2022/05/12 11:05:48;;;;;;;3.47;2.83;;;25.10;99.90;;;;;;5061532;28;20449;-81
2022/05/12 11:08:24;;;;;;;2.50;2.33;;;25.20;99.90;;;;;;5060964;28;20499;-80
2022/05/12 11:10:56;;;;;;;2.90;2.70;;;25.20;99.90;;;;;;5062882;28;20446;-82
2022/05/12 11:13:32;;;;;;;2.60;2.17;;;25.30;99.90;;;;;;5061859;28;20537;-79
2022/05/12 11:16:02;;;;;;;2.50;2.30;;;25.40;99.90;;;;;;5060716;28;20492;-80
2022/05/12 11:18:38;;;;;;;2.80;2.60;;;25.50;99.90;;;;;;5060378;28;20459;-79
2022/05/12 11:21:15;;;;;;;4.27;3.10;;;25.60;99.90;;;;;;5061507;28;20961;-80
2022/05/12 11:24:10;;;;;;;3.30;3.00;;;25.50;99.90;;;;;;5058322;28;20469;-81
2022/05/12 11:26:55;;;;;;;2.83;2.23;;;25.40;99.90;;;;;;5062204;28;20451;-80
2022/05/12 11:29:44;;;;;;;2.50;2.30;;;25.50;99.90;;;;;;5061452;28;20448;-80
2022/05/12 11:32:39;;;;;;;3.40;3.10;;;25.70;99.90;;;;;;5059517;28;20450;-79
2022/05/12 11:35:11;;;;;;;3.00;2.70;;;25.50;99.90;;;;;;5061420;28;20555;-80
2022/05/12 11:37:58;;;;;;;2.50;2.20;;;25.60;99.90;;;;;;5061039;28;20469;-80
2022/05/12 11:40:53;;;;;;;2.50;2.40;;;25.70;99.90;;;;;;5059137;28;20460;-79
2022/05/12 11:46:41;;;;;;;2.43;2.00;;;25.90;99.90;;;;;;5057628;28;20539;-82
2022/05/12 11:49:31;;;;;;;4.13;2.27;;;26.00;99.90;;;;;;5059190;28;20446;-81
2022/05/12 11:52:13;;;;;;;2.17;1.80;;;26.10;99.90;;;;;;5064564;28;20999;-82
2022/05/12 11:54:51;;;;;;;3.03;2.77;;;26.10;99.90;;;;;;5059776;28;20489;-79
2022/05/12 11:57:29;;;;;;;3.07;2.87;;;26.10;99.90;;;;;;5060019;28;20962;-79
2022/05/12 11:59:59;;;;;;;2.60;2.40;;;26.10;99.90;;;;;;5059832;28;20573;-79
2022/05/12 12:02:46;;;;;;;2.20;2.00;;;26.10;99.90;;;;;;5062101;28;20478;-79
2022/05/12 12:05:47;;;;;;;2.70;2.40;;;26.20;99.90;;;;;;5065440;28;20481;-80
2022/05/12 12:08:40;;;;;;;3.73;2.37;;;26.20;99.90;;;;;;5063940;28;20476;-80
2022/05/12 12:11:27;;;;;;;3.33;3.00;;;26.20;99.90;;;;;;5061533;28;20446;-81
2022/05/12 12:13:59;;;;;;;3.07;2.10;;;26.20;99.90;;;;;;5065205;28;20700;-78
2022/05/12 12:16:29;;;;;;;2.33;2.13;;;26.20;99.90;;;;;;5059244;28;20478;-78
2022/05/12 12:19:03;;;;;;;3.13;2.47;;;26.20;99.90;;;;;;5065809;28;21222;-78
2022/05/12 12:21:44;;;;;;;2.27;2.17;;;26.20;99.90;;;;;;5061462;28;20455;-82
2022/05/12 12:24:43;;;;;;;2.33;2.10;;;26.30;99.90;;;;;;5059995;28;20849;-78
2022/05/12 12:27:27;;;;;;;2.80;2.43;;;26.30;99.90;;;;;;5061699;28;20551;-80
2022/05/12 12:30:35;;;;;;;2.73;2.53;;;26.40;99.90;;;;;;5063238;28;20462;-79
2022/05/12 12:33:36;;;;;;;2.23;2.03;;;26.40;99.90;;;;;;5063850;28;20449;-78
2022/05/12 12:36:06;;;;;;;3.23;2.50;;;26.40;99.90;;;;;;5060824;28;20470;-80
2022/05/12 12:39:08;;;;;;;3.03;2.57;;;26.40;99.90;;;;;;5061026;28;21091;-79
2022/05/12 12:41:39;;;;;;;3.63;2.10;;;26.40;99.90;;;;;;5063694;28;20576;-80
2022/05/12 12:44:12;;;;;;;2.70;2.50;;;26.50;99.90;;;;;;5066118;28;20485;-79
2022/05/12 12:46:50;;;;;;;2.77;2.57;;;26.50;99.90;;;;;;5064263;28;20475;-79
2022/05/12 12:49:24;;;;;;;2.47;2.27;;;26.50;99.90;;;;;;5060310;28;20494;-79
2022/05/12 12:51:57;;;;;;;2.30;2.10;;;26.50;99.90;;;;;;5063406;28;20470;-79
2022/05/12 12:57:25;;;;;;;2.37;2.17;;;26.60;99.90;;;;;;5062590;28;21015;-78
2022/05/12 12:59:57;;;;;;;2.50;2.30;;;26.70;99.90;;;;;;5059767;28;20462;-79
2022/05/12 13:02:30;;;;;;;2.50;2.17;;;26.70;99.90;;;;;;5061473;28;20954;-80
2022/05/12 13:05:05;;;;;;;2.13;1.97;;;26.70;99.90;;;;;;5058348;28;20474;-79
2022/05/12 13:07:36;;;;;;;2.60;2.50;;;26.70;99.90;;;;;;5061303;28;20558;-79
2022/05/12 13:10:08;;;;;;;4.87;3.00;;;26.80;99.90;;;;;;5058099;28;21018;-78
2022/05/12 13:12:37;;;;;;;2.40;2.00;;;26.70;99.90;;;;;;5059669;28;20447;-79
2022/05/12 13:15:17;;;;;;;2.83;2.40;;;26.70;99.90;;;;;;5060563;28;20485;-79
2022/05/12 13:17:49;;;;;;;4.00;2.20;;;26.70;99.90;;;;;;5061008;28;20463;-79
2022/05/12 13:20:33;;;;;;;2.33;1.80;;;26.70;99.90;;;;;;5059653;28;20465;-80
2022/05/12 13:23:07;;;;;;;2.37;2.10;;;26.70;99.90;;;;;;5059420;28;20541;-78
2022/05/12 13:25:41;;;;;;;4.97;3.20;;;26.60;99.90;;;;;;5059303;28;21318;-78
2022/05/12 13:28:15;;;;;;;4.80;2.97;;;26.70;99.90;;;;;;5060839;28;20861;-78
2022/05/12 13:30:46;;;;;;;2.47;2.27;;;26.70;99.90;;;;;;5067846;28;20435;-79
2022/05/12 13:33:22;;;;;;;4.30;2.67;;;26.60;99.90;;;;;;5063862;28;20462;-81
2022/05/12 13:35:59;;;;;;;2.07;1.83;;;26.60;99.90;;;;;;5061757;28;20474;-81
2022/05/12 13:38:31;;;;;;;2.43;2.23;;;26.70;99.90;;;;;;5058504;28;20483;-79